Time;durP1;ratioP1;P1;durP2;ratioP2;P2;SDS_P1;SDS_P2;PMS_P1;PMS_P2;Temp;Humidity;BMP_temperature;BMP_pressure;BME280_temperature;BME280_humidity;BME280_pressure;Samples;Min_cycle;Max_cycle;Signal;HPM_P1;HPM_P2
2023/08/22 00:00:28;;;;;;;8.50;1.60;;;;;;;22.79;54.57;101493.53;5035410;28;20409;-62
2023/08/22 00:02:56;;;;;;;6.75;1.33;;;;;;;23.19;53.34;101488.94;5035355;28;20048;-62
2023/08/22 00:05:24;;;;;;;8.52;1.80;;;;;;;23.11;53.88;101495.66;5052938;28;20056;-62
2023/08/22 00:07:51;;;;;;;6.60;1.58;;;;;;;23.15;53.57;101484.47;5052000;28;20492;-62
2023/08/22 00:10:18;;;;;;;4.85;1.42;;;;;;;23.06;53.73;101481.13;5032096;28;20552;-62
2023/08/22 00:12:46;;;;;;;3.92;1.45;;;;;;;23.33;53.05;101485.53;5033561;28;20382;-62
2023/08/22 00:15:13;;;;;;;7.75;1.42;;;;;;;23.26;53.50;101486.22;5032557;28;20068;-62
2023/08/22 00:17:41;;;;;;;4.20;1.50;;;;;;;23.07;53.70;101483.53;5033624;28;20060;-61
2023/08/22 00:20:13;;;;;;;4.82;1.48;;;;;;;22.91;54.64;101482.09;5016521;28;20428;-62
2023/08/22 00:22:41;;;;;;;6.43;1.63;;;;;;;23.24;53.71;101477.34;5053120;28;20063;-61
2023/08/22 00:25:10;;;;;;;4.28;1.48;;;;;;;22.92;54.78;101470.47;5048779;28;20049;-62
2023/08/22 00:27:38;;;;;;;5.38;1.52;;;;;;;23.05;54.36;101480.28;5056360;28;20479;-62
2023/08/22 00:30:06;;;;;;;4.50;1.48;;;;;;;23.06;54.33;101478.31;5065976;28;20055;-62
2023/08/22 00:32:34;;;;;;;4.80;1.13;;;;;;;22.90;54.69;101480.47;5065942;28;20507;-62
2023/08/22 00:35:02;;;;;;;4.88;1.30;;;;;;;23.23;53.81;101472.94;5055879;28;20045;-62
2023/08/22 00:37:29;;;;;;;8.77;1.38;;;;;;;23.23;53.63;101486.19;5056010;28;20071;-61
2023/08/22 00:39:58;;;;;;;4.90;1.33;;;;;;;22.99;54.38;101483.81;5055512;28;20060;-63
2023/08/22 00:42:28;;;;;;;8.43;1.48;;;;;;;22.77;55.28;101488.28;5044057;28;20054;-62
2023/08/22 00:44:55;;;;;;;5.40;1.48;;;;;;;22.54;56.05;101483.88;5054748;28;20385;-62
2023/08/22 00:47:23;;;;;;;6.88;1.58;;;;;;;22.34;56.78;101483.13;5055856;28;20061;-62
2023/08/22 00:49:51;;;;;;;4.57;1.52;;;;;;;22.54;56.44;101483.88;5055161;28;20048;-61
2023/08/22 00:52:18;;;;;;;6.85;1.83;;;;;;;22.58;56.47;101487.59;5051976;28;20080;-61
2023/08/22 00:54:46;;;;;;;4.22;1.23;;;;;;;23.00;55.19;101479.81;5037149;28;20054;-62
2023/08/22 00:57:14;;;;;;;6.82;1.70;;;;;;;22.64;55.90;101484.09;5051877;28;20049;-62
2023/08/22 00:59:41;;;;;;;6.78;1.42;;;;;;;22.70;56.14;101479.75;5054662;28;20059;-63
2023/08/22 01:02:08;;;;;;;7.60;1.67;;;;;;;22.75;56.14;101470.22;5039097;28;20527;-63
2023/08/22 01:04:36;;;;;;;7.15;1.40;;;;;;;22.83;55.37;101475.56;5056538;28;20056;-62
2023/08/22 01:07:07;;;;;;;11.18;1.38;;;;;;;22.50;56.63;101475.38;5055567;28;20477;-62
2023/08/22 01:09:42;;;;;;;4.72;1.10;;;;;;;22.57;56.58;101469.09;5055344;28;20063;-62
2023/08/22 01:12:18;;;;;;;4.25;1.30;;;;;;;22.61;56.46;101464.38;5039329;28;20045;-62
2023/08/22 01:14:51;;;;;;;4.43;1.30;;;;;;;22.42;56.93;101470.81;5052177;28;20054;-62
2023/08/22 01:17:19;;;;;;;4.95;1.20;;;;;;;22.48;57.09;101465.72;5055458;28;20150;-62
2023/08/22 01:19:47;;;;;;;7.72;1.45;;;;;;;22.28;57.53;101474.19;5054719;28;20045;-61
2023/08/22 01:22:23;;;;;;;5.93;1.63;;;;;;;22.37;57.11;101471.13;5056616;28;20396;-62
2023/08/22 01:24:51;;;;;;;5.47;1.63;;;;;;;22.75;56.34;101464.59;5051266;28;20072;-61
2023/08/22 01:27:21;;;;;;;4.53;1.55;;;;;;;22.28;56.87;101457.34;5054993;28;20056;-62
2023/08/22 01:29:56;;;;;;;5.20;1.48;;;;;;;22.51;56.74;101453.75;5050311;28;20053;-62
2023/08/22 01:32:27;;;;;;;6.68;1.63;;;;;;;22.38;56.78;101455.94;5058291;28;20064;-62
2023/08/22 01:35:02;;;;;;;7.20;1.48;;;;;;;22.24;57.18;101453.69;5055972;28;20056;-61
2023/08/22 01:37:31;;;;;;;4.57;1.50;;;;;;;22.43;56.67;101452.81;5052367;28;20693;-61
2023/08/22 01:39:59;;;;;;;4.97;1.48;;;;;;;22.45;57.24;101449.63;5054710;28;20057;-62
2023/08/22 01:42:26;;;;;;;4.18;1.30;;;;;;;22.17;57.73;101450.75;5054671;28;20060;-62
2023/08/22 01:44:54;;;;;;;5.45;1.63;;;;;;;22.24;57.58;101455.69;5055540;28;20060;-62
2023/08/22 01:47:23;;;;;;;6.07;1.52;;;;;;;22.24;57.36;101445.28;5051669;28;20049;-62
2023/08/22 01:49:51;;;;;;;5.65;1.30;;;;;;;22.23;57.49;101440.84;5054370;28;20080;-61
2023/08/22 01:52:21;;;;;;;6.40;1.50;;;;;;;22.18;57.97;101445.94;5055677;28;20052;-61
2023/08/22 01:54:48;;;;;;;4.97;1.52;;;;;;;22.13;57.77;101441.47;5054533;28;20053;-61
2023/08/22 01:57:16;;;;;;;9.20;1.65;;;;;;;21.88;58.59;101428.97;5054532;28;20048;-62
2023/08/22 01:59:43;;;;;;;6.78;1.83;;;;;;;21.89;59.06;101427.81;5054035;28;20041;-62
2023/08/22 02:02:10;;;;;;;7.50;1.50;;;;;;;21.91;58.59;101433.84;5054561;28;20044;-62
2023/08/22 02:04:39;;;;;;;9.32;1.42;;;;;;;22.21;58.07;101428.38;5051047;28;20060;-61
2023/08/22 02:07:06;;;;;;;6.47;1.65;;;;;;;22.10;57.84;101425.38;5037647;28;20075;-62
2023/08/22 02:09:33;;;;;;;6.05;1.23;;;;;;;22.18;58.20;101426.28;5055830;28;20049;-62
2023/08/22 02:12:01;;;;;;;6.00;1.58;;;;;;;22.10;58.31;101427.38;5053536;28;20056;-62
2023/08/22 02:14:28;;;;;;;6.15;1.50;;;;;;;22.03;58.22;101427.25;5054129;28;20059;-63
2023/08/22 02:16:59;;;;;;;8.57;1.90;;;;;;;21.87;59.04;101434.94;5054291;28;20056;-61
2023/08/22 02:19:26;;;;;;;5.20;1.50;;;;;;;21.91;59.24;101433.03;5037309;28;20044;-61
2023/08/22 02:21:54;;;;;;;6.85;1.98;;;;;;;22.14;58.36;101429.03;5052733;28;20504;-61
2023/08/22 02:24:21;;;;;;;5.22;1.42;;;;;;;21.80;59.12;101434.81;5063260;28;20045;-62
2023/08/22 02:26:48;;;;;;;8.45;1.50;;;;;;;21.75;59.52;101429.47;5053670;28;20516;-62
2023/08/22 02:29:16;;;;;;;7.32;1.58;;;;;;;22.01;58.85;101432.41;5057248;28;20049;-62
2023/08/22 02:31:43;;;;;;;5.82;1.85;;;;;;;21.69;59.92;101428.97;5070349;28;20602;-61
2023/08/22 02:34:12;;;;;;;6.70;1.60;;;;;;;21.73;60.01;101435.47;5052727;28;20066;-61
2023/08/22 02:36:40;;;;;;;4.63;1.58;;;;;;;22.04;59.23;101420.44;5036413;28;20496;-62
2023/08/22 02:39:08;;;;;;;7.38;1.92;;;;;;;22.17;58.87;101421.88;5050724;28;20080;-61
2023/08/22 02:41:36;;;;;;;6.68;1.63;;;;;;;21.97;59.22;101417.50;5053140;28;20061;-62
2023/08/22 02:44:03;;;;;;;4.35;1.35;;;;;;;21.92;59.42;101409.41;5054817;28;20408;-61
2023/08/22 02:46:30;;;;;;;4.57;1.67;;;;;;;22.24;58.58;101405.16;5053260;28;20060;-62
2023/08/22 02:48:58;;;;;;;9.57;1.67;;;;;;;22.11;58.62;101417.75;5052920;28;20045;-61
2023/08/22 02:51:25;;;;;;;7.00;1.88;;;;;;;22.12;58.45;101425.00;5053064;28;20064;-62
2023/08/22 02:53:53;;;;;;;5.07;1.35;;;;;;;22.02;58.92;101420.81;5051722;28;20057;-61
2023/08/22 02:56:20;;;;;;;7.72;1.65;;;;;;;22.08;58.89;101422.13;5052795;28;20049;-63
2023/08/22 02:58:48;;;;;;;6.68;1.40;;;;;;;22.20;58.63;101418.31;5054814;28;20053;-62
2023/08/22 03:01:16;;;;;;;5.47;1.30;;;;;;;22.07;58.50;101417.69;5052995;28;20455;-61
2023/08/22 03:03:49;;;;;;;7.75;1.60;;;;;;;21.86;59.50;101411.69;5054323;28;20480;-63
2023/08/22 03:06:18;;;;;;;5.15;1.52;;;;;;;22.15;58.58;101415.81;5053032;28;20055;-61
2023/08/22 03:08:45;;;;;;;4.63;1.58;;;;;;;22.27;58.09;101407.22;5054384;28;20048;-61
2023/08/22 03:11:13;;;;;;;4.68;1.30;;;;;;;21.88;59.62;101409.31;5046735;28;20041;-62
2023/08/22 03:13:40;;;;;;;13.38;2.00;;;;;;;21.81;60.09;101409.19;5016274;28;20049;-61
2023/08/22 03:16:08;;;;;;;4.68;1.27;;;;;;;21.80;60.07;101409.56;5017161;28;20057;-61
2023/08/22 03:18:39;;;;;;;6.75;1.67;;;;;;;21.82;59.74;101418.44;5033091;28;20065;-62
2023/08/22 03:21:06;;;;;;;6.18;1.60;;;;;;;21.79;60.18;101414.38;5043755;28;20056;-62
2023/08/22 03:23:34;;;;;;;4.90;1.40;;;;;;;22.11;59.44;101418.56;5040506;28;20076;-62
2023/08/22 03:26:10;;;;;;;5.18;1.60;;;;;;;22.18;59.04;101409.47;5036517;28;20456;-62
2023/08/22 03:28:39;;;;;;;4.63;1.30;;;;;;;21.96;59.76;101411.09;5048295;28;20298;-63
2023/08/22 03:31:06;;;;;;;12.43;1.48;;;;;;;22.34;58.72;101402.53;5069612;28;20399;-62
2023/08/22 03:33:34;;;;;;;6.22;1.65;;;;;;;22.47;58.46;101402.31;5054248;28;20070;-63
2023/08/22 03:36:05;;;;;;;7.07;1.33;;;;;;;22.25;58.88;101409.56;5052795;28;20053;-62
2023/08/22 03:38:33;;;;;;;5.78;1.42;;;;;;;22.18;59.25;101410.28;5052366;28;20404;-62
2023/08/22 03:41:00;;;;;;;7.82;1.55;;;;;;;22.11;59.66;101417.75;5052347;28;20044;-63
2023/08/22 03:43:28;;;;;;;4.20;1.50;;;;;;;22.34;58.99;101408.16;5052324;28;20041;-62
2023/08/22 03:45:55;;;;;;;5.15;1.60;;;;;;;22.38;58.88;101405.41;5048594;28;20049;-61
2023/08/22 03:48:23;;;;;;;6.63;1.50;;;;;;;22.20;59.24;101410.72;5052494;28;20053;-61
2023/08/22 03:50:52;;;;;;;7.35;1.85;;;;;;;22.05;59.77;101414.47;5052449;28;20048;-63
2023/08/22 03:53:20;;;;;;;7.00;1.60;;;;;;;22.08;59.30;101410.91;5035943;28;20052;-63
2023/08/22 03:55:47;;;;;;;6.68;1.50;;;;;;;22.09;59.93;101420.94;5052388;28;20057;-62
2023/08/22 03:58:15;;;;;;;7.45;1.77;;;;;;;21.80;60.46;101412.38;5053484;28;20053;-62
2023/08/22 04:00:42;;;;;;;7.32;1.80;;;;;;;21.90;60.71;101406.97;5051378;28;20424;-62
2023/08/22 04:03:09;;;;;;;6.18;1.58;;;;;;;21.61;61.26;101409.56;5047501;28;20049;-61
2023/08/22 04:05:41;;;;;;;5.65;1.52;;;;;;;21.77;60.97;101408.31;5052155;28;20492;-62
2023/08/22 04:08:08;;;;;;;6.75;1.85;;;;;;;21.93;60.44;101406.22;5035761;28;20068;-62
2023/08/22 04:10:35;;;;;;;8.68;1.98;;;;;;;21.70;61.06;101407.34;5019530;28;20055;-63
2023/08/22 04:13:03;;;;;;;6.22;1.63;;;;;;;21.54;61.83;101413.06;5051044;28;20053;-62
2023/08/22 04:15:30;;;;;;;9.40;1.75;;;;;;;21.57;61.79;101417.09;5033466;28;20046;-61
2023/08/22 04:17:58;;;;;;;9.32;1.98;;;;;;;21.60;61.46;101411.56;5039349;28;20049;-62
2023/08/22 04:20:26;;;;;;;6.15;1.75;;;;;;;21.77;61.51;101416.72;5050961;28;20048;-63
2023/08/22 04:22:54;;;;;;;6.13;1.45;;;;;;;21.40;62.04;101421.19;5051847;28;20072;-62
2023/08/22 04:25:22;;;;;;;7.03;1.55;;;;;;;21.52;62.11;101420.22;5049528;28;20064;-62
2023/08/22 04:27:53;;;;;;;6.50;1.80;;;;;;;21.64;61.18;101415.25;5052357;28;20060;-63
2023/08/22 04:30:20;;;;;;;7.05;1.42;;;;;;;21.45;61.93;101426.50;5063131;28;20048;-63
2023/08/22 04:32:48;;;;;;;7.68;1.90;;;;;;;21.48;62.19;101427.75;5068951;28;20043;-63
2023/08/22 04:35:17;;;;;;;7.53;1.40;;;;;;;21.63;61.68;101419.25;5034174;28;20407;-62
2023/08/22 04:37:47;;;;;;;6.55;1.60;;;;;;;21.64;61.35;101414.44;5051935;28;20073;-62
2023/08/22 04:40:15;;;;;;;6.80;1.73;;;;;;;21.51;62.10;101408.19;5051686;28;20057;-61
2023/08/22 04:42:56;;;;;;;7.60;1.80;;;;;;;21.46;62.22;101419.72;5051623;28;20380;-62
2023/08/22 04:45:23;;;;;;;9.52;2.03;;;;;;;21.96;61.08;101411.09;5051638;28;20428;-62
2023/08/22 04:47:53;;;;;;;6.47;1.83;;;;;;;21.80;61.16;101410.41;5053297;28;20634;-62
2023/08/22 04:50:20;;;;;;;8.65;2.00;;;;;;;21.76;61.23;101408.69;5051919;28;20037;-63
2023/08/22 04:52:48;;;;;;;9.23;2.10;;;;;;;21.48;62.04;101410.94;5032030;28;20084;-62
2023/08/22 04:55:18;;;;;;;12.52;1.77;;;;;;;21.70;61.39;101421.38;5033372;28;20492;-62
2023/08/22 04:57:47;;;;;;;12.15;1.90;;;;;;;21.60;61.74;101416.38;5032111;28;20069;-63
2023/08/22 05:00:15;;;;;;;7.32;2.00;;;;;;;21.46;62.24;101430.13;5031473;28;20068;-62
2023/08/22 05:02:42;;;;;;;8.00;1.85;;;;;;;21.60;62.12;101425.59;5033104;28;20057;-63
2023/08/22 05:05:10;;;;;;;6.28;1.77;;;;;;;21.83;61.29;101426.47;5031753;28;20079;-63
2023/08/22 05:07:38;;;;;;;10.52;1.95;;;;;;;21.95;60.94;101426.28;5043881;28;20056;-62
2023/08/22 05:10:07;;;;;;;11.45;2.10;;;;;;;21.56;62.08;101433.13;5052120;28;20048;-63
2023/08/22 05:12:34;;;;;;;8.20;2.30;;;;;;;21.68;61.93;101427.38;5036654;28;20432;-63
2023/08/22 05:15:02;;;;;;;7.88;2.33;;;;;;;21.63;61.80;101430.47;5055103;28;20080;-63
2023/08/22 05:17:40;;;;;;;;;;;;;;;;;;;;;
2023/08/22 05:20:13;;;;;;;8.93;1.85;;;;;;;21.40;62.84;101438.00;5055338;28;20859;-63
2023/08/22 05:22:41;;;;;;;6.95;2.08;;;;;;;21.12;63.77;101443.00;5052694;28;20053;-62
2023/08/22 05:25:09;;;;;;;8.60;1.85;;;;;;;20.98;64.27;101448.25;5063787;28;20053;-67
2023/08/22 05:27:37;;;;;;;8.63;1.70;;;;;;;20.97;64.50;101444.63;5039050;28;20048;-62
2023/08/22 05:30:06;;;;;;;9.65;2.08;;;;;;;21.11;64.30;101442.19;5063991;28;20044;-64
2023/08/22 05:32:34;;;;;;;12.27;2.22;;;;;;;21.20;63.68;101445.59;5047100;28;20057;-64
2023/08/22 05:35:02;;;;;;;10.18;2.17;;;;;;;21.17;63.87;101451.94;5056347;28;20051;-62
2023/08/22 05:37:30;;;;;;;6.75;1.60;;;;;;;21.34;63.34;101452.69;5054368;28;20832;-62
2023/08/22 05:39:58;;;;;;;5.68;1.70;;;;;;;21.67;61.97;101444.56;5052763;28;20504;-63
2023/08/22 05:42:25;;;;;;;6.43;1.70;;;;;;;21.81;61.50;101453.28;5053973;28;20053;-62
2023/08/22 05:44:55;;;;;;;7.57;1.60;;;;;;;21.58;61.72;101453.19;5054789;28;20087;-65
2023/08/22 05:47:24;;;;;;;6.43;1.90;;;;;;;21.50;62.46;101448.63;5054439;28;20587;-63
2023/08/22 05:49:52;;;;;;;11.10;1.88;;;;;;;21.54;62.19;101446.72;5055980;28;20041;-64
2023/08/22 05:52:19;;;;;;;12.02;1.70;;;;;;;21.83;61.17;101446.09;5054549;28;20084;-63
2023/08/22 05:54:47;;;;;;;5.13;1.88;;;;;;;21.94;60.99;101441.50;5048378;28;20045;-63
2023/08/22 05:57:15;;;;;;;4.68;1.55;;;;;;;22.16;60.38;101453.91;5055038;28;20052;-63
2023/08/22 05:59:42;;;;;;;7.75;1.98;;;;;;;21.80;60.90;101460.06;5035825;28;20056;-62
2023/08/22 06:02:10;;;;;;;8.57;1.80;;;;;;;21.72;61.67;101461.09;5033997;28;20080;-62
2023/08/22 06:04:37;;;;;;;9.18;1.80;;;;;;;21.61;62.29;101471.25;5048275;28;20056;-62
2023/08/22 06:07:06;;;;;;;10.40;2.10;;;;;;;21.34;63.08;101475.09;5054286;28;20052;-63
2023/08/22 06:09:33;;;;;;;9.85;1.95;;;;;;;20.99;64.86;101477.94;5055730;28;20436;-63
2023/08/22 06:12:01;;;;;;;6.57;1.92;;;;;;;21.17;64.13;101470.72;5052936;28;20052;-63
2023/08/22 06:14:29;;;;;;;8.85;1.83;;;;;;;21.56;63.28;101475.19;5048736;28;20045;-63
2023/08/22 06:16:57;;;;;;;6.55;2.20;;;;;;;21.55;62.83;101483.97;5055797;28;20045;-62
2023/08/22 06:19:25;;;;;;;7.30;2.05;;;;;;;21.49;63.54;101491.88;5052974;28;20057;-62
2023/08/22 06:21:56;;;;;;;7.38;2.10;;;;;;;21.39;64.11;101492.44;5054415;28;20049;-62
2023/08/22 06:24:24;;;;;;;15.93;2.65;;;;;;;21.71;62.93;101496.72;5054036;28;20045;-61
2023/08/22 06:26:52;;;;;;;8.32;2.35;;;;;;;21.38;64.21;101502.03;5054046;28;20037;-62
2023/08/22 06:29:19;;;;;;;12.70;2.08;;;;;;;21.34;64.04;101495.53;5052303;28;20060;-63
2023/08/22 06:31:47;;;;;;;9.20;2.08;;;;;;;21.72;62.47;101501.16;5057548;28;20049;-62
2023/08/22 06:34:14;;;;;;;10.93;2.38;;;;;;;21.67;63.23;101490.22;5054524;28;20041;-62
2023/08/22 06:36:41;;;;;;;6.38;1.90;;;;;;;22.02;62.07;101498.59;5053559;28;20040;-63
2023/08/22 06:39:09;;;;;;;11.55;2.42;;;;;;;21.91;61.95;101501.19;5054742;28;20060;-63
2023/08/22 06:41:36;;;;;;;8.68;2.47;;;;;;;22.00;61.72;101501.72;5053879;28;20048;-61
2023/08/22 06:44:10;;;;;;;10.70;2.45;;;;;;;22.10;61.27;101495.53;5033512;28;20057;-62
2023/08/22 06:46:38;;;;;;;9.18;2.35;;;;;;;22.05;61.20;101495.84;5049363;28;20048;-62
2023/08/22 06:49:05;;;;;;;9.93;2.17;;;;;;;22.09;61.19;101491.09;5054536;28;20455;-62
2023/08/22 06:51:33;;;;;;;8.88;2.20;;;;;;;22.38;60.74;101491.59;5020526;28;20053;-63
2023/08/22 06:54:00;;;;;;;11.10;2.58;;;;;;;22.05;61.29;101487.44;5054148;28;20049;-63
2023/08/22 06:56:28;;;;;;;11.23;4.10;;;;;;;22.12;61.76;101497.97;5054534;28;20622;-64
2023/08/22 06:58:55;;;;;;;17.60;2.67;;;;;;;22.31;60.41;101495.09;5049571;28;20064;-61
2023/08/22 07:01:23;;;;;;;9.15;2.72;;;;;;;22.44;60.21;101498.53;5033149;28;20105;-61
2023/08/22 07:03:50;;;;;;;8.05;2.33;;;;;;;22.68;59.26;101498.19;5047082;28;20048;-63
2023/08/22 07:06:36;;;;;;;6.90;2.38;;;;;;;22.74;59.09;101503.09;5054993;28;20041;-64
2023/08/22 07:09:04;;;;;;;6.75;2.55;;;;;;;22.69;58.97;101508.22;5054669;28;20049;-63
2023/08/22 07:11:32;;;;;;;8.05;2.20;;;;;;;22.70;59.06;101496.59;5054561;28;20053;-63
2023/08/22 07:13:59;;;;;;;9.10;2.42;;;;;;;22.80;59.00;101490.38;5054024;28;20602;-62
2023/08/22 07:16:26;;;;;;;9.40;2.75;;;;;;;22.68;59.11;101490.56;5053054;28;20603;-62
2023/08/22 07:18:54;;;;;;;11.70;2.97;;;;;;;22.62;59.04;101510.91;5053677;28;20053;-63
2023/08/22 07:21:21;;;;;;;10.73;2.60;;;;;;;22.80;59.07;101496.00;5047616;28;20060;-62
2023/08/22 07:23:48;;;;;;;10.18;2.67;;;;;;;22.78;59.14;101494.72;5047357;28;20045;-64
2023/08/22 07:26:16;;;;;;;9.38;2.70;;;;;;;22.80;58.82;101495.16;5055026;28;20048;-65
2023/08/22 07:28:43;;;;;;;12.48;2.72;;;;;;;22.74;58.97;101493.84;5053150;28;20052;-63
2023/08/22 07:31:11;;;;;;;15.07;3.50;;;;;;;22.62;59.70;101482.81;5072140;28;20052;-63
2023/08/22 07:33:38;;;;;;;15.57;2.83;;;;;;;22.96;58.68;101482.56;5033733;28;20054;-62
2023/08/22 07:36:06;;;;;;;12.98;3.00;;;;;;;22.82;58.71;101487.97;5047309;28;20495;-62
2023/08/22 07:38:33;;;;;;;11.40;2.92;;;;;;;23.26;57.82;101489.03;5049644;28;20489;-64
2023/08/22 07:41:01;;;;;;;11.40;2.72;;;;;;;23.02;57.91;101497.94;5053659;28;20059;-63
2023/08/22 07:43:28;;;;;;;12.38;3.00;;;;;;;23.03;58.23;101493.13;5054204;28;20500;-63
2023/08/22 07:45:55;;;;;;;12.68;2.97;;;;;;;23.01;58.18;101490.66;5053469;28;20725;-63
2023/08/22 07:48:23;;;;;;;10.35;2.45;;;;;;;23.14;57.80;101497.69;5054304;28;20068;-63
2023/08/22 07:50:50;;;;;;;11.90;2.83;;;;;;;23.22;56.90;101499.41;5053448;28;20047;-63
2023/08/22 07:53:18;;;;;;;12.73;2.78;;;;;;;23.20;57.05;101498.19;5053822;28;20052;-64
2023/08/22 07:55:48;;;;;;;10.88;2.90;;;;;;;23.30;56.61;101494.75;5048791;28;20048;-63
2023/08/22 07:58:16;;;;;;;10.70;3.05;;;;;;;23.06;57.09;101503.59;5044245;28;20056;-63
2023/08/22 08:00:47;;;;;;;12.10;2.67;;;;;;;23.41;56.42;101499.31;5035863;28;20042;-63
2023/08/22 08:03:15;;;;;;;10.07;2.72;;;;;;;23.41;56.36;101507.75;5039902;28;20056;-62
2023/08/22 08:05:43;;;;;;;13.90;2.90;;;;;;;23.41;55.75;101515.38;5051942;28;20071;-64
2023/08/22 08:08:10;;;;;;;13.05;2.67;;;;;;;23.43;55.57;101513.81;5052192;28;20049;-63
2023/08/22 08:10:38;;;;;;;12.75;2.85;;;;;;;23.66;55.62;101510.88;5047971;28;20049;-63
2023/08/22 08:13:06;;;;;;;11.32;2.70;;;;;;;23.75;54.92;101517.03;5033605;28;20055;-62
2023/08/22 08:15:33;;;;;;;14.77;2.78;;;;;;;23.76;54.52;101512.22;5033187;28;20485;-63
2023/08/22 08:18:01;;;;;;;10.77;2.80;;;;;;;23.73;54.68;101508.16;5037086;28;20041;-62
2023/08/22 08:20:28;;;;;;;16.63;2.92;;;;;;;23.76;54.70;101504.59;5052821;28;20717;-63
2023/08/22 08:22:56;;;;;;;13.15;2.72;;;;;;;23.98;54.24;101512.09;5052344;28;20519;-62
2023/08/22 08:25:23;;;;;;;12.93;2.50;;;;;;;24.18;53.72;101515.56;5053138;28;20057;-63
2023/08/22 08:27:50;;;;;;;15.13;2.90;;;;;;;24.39;53.25;101513.75;5050078;28;20496;-63
2023/08/22 08:30:18;;;;;;;12.90;2.70;;;;;;;24.50;52.35;101505.41;5064884;28;20150;-63
2023/08/22 08:32:45;;;;;;;16.50;3.50;;;;;;;24.60;52.44;101513.13;5059295;28;20055;-62
2023/08/22 08:35:14;;;;;;;13.35;2.80;;;;;;;24.64;51.85;101508.34;5052569;28;20068;-63
2023/08/22 08:37:41;;;;;;;6.88;2.65;;;;;;;24.59;51.38;101511.53;5053420;28;20041;-62
2023/08/22 08:40:09;;;;;;;16.38;2.63;;;;;;;24.72;50.73;101512.06;5053531;28;20440;-63
2023/08/22 08:42:36;;;;;;;15.35;3.20;;;;;;;24.69;50.23;101522.09;5047400;28;20401;-62
2023/08/22 08:45:05;;;;;;;10.82;2.63;;;;;;;24.92;50.51;101517.06;5053040;28;20052;-61
2023/08/22 08:47:34;;;;;;;11.65;2.88;;;;;;;25.37;49.75;101507.28;5054566;28;20499;-63
2023/08/22 08:50:04;;;;;;;15.27;2.75;;;;;;;25.34;48.78;101517.34;5057054;28;20056;-64
2023/08/22 08:52:32;;;;;;;12.90;2.78;;;;;;;25.23;49.46;101507.19;5056728;28;20052;-61
2023/08/22 08:55:00;;;;;;;9.80;2.65;;;;;;;25.21;49.65;101506.78;5056914;28;20396;-62
2023/08/22 08:57:27;;;;;;;11.95;2.47;;;;;;;25.02;49.27;101505.03;5055874;28;20056;-63
2023/08/22 08:59:55;;;;;;;7.70;2.92;;;;;;;25.19;49.42;101504.34;5056934;28;20049;-64
2023/08/22 09:02:22;;;;;;;9.43;2.53;;;;;;;25.56;48.39;101498.53;5052081;28;20488;-62
2023/08/22 09:04:49;;;;;;;11.20;2.78;;;;;;;25.68;48.10;101483.28;5056468;28;20052;-63
2023/08/22 09:07:18;;;;;;;15.75;3.20;;;;;;;25.31;47.40;101484.28;5056816;28;20060;-62
2023/08/22 09:09:45;;;;;;;11.65;3.45;;;;;;;25.26;48.02;101487.47;5055803;28;20452;-63
2023/08/22 09:12:15;;;;;;;14.82;3.30;;;;;;;25.36;47.91;101483.09;5056431;28;20049;-64
2023/08/22 09:14:44;;;;;;;15.90;3.60;;;;;;;25.34;47.51;101488.31;5056394;28;20060;-63
2023/08/22 09:17:18;;;;;;;14.13;3.40;;;;;;;25.40;47.14;101481.16;5056883;28;20049;-62
2023/08/22 09:19:45;;;;;;;16.75;3.00;;;;;;;25.60;46.86;101482.44;5041796;28;20065;-62
2023/08/22 09:22:14;;;;;;;10.27;2.35;;;;;;;25.55;46.64;101483.63;5055639;28;20045;-62
2023/08/22 09:24:51;;;;;;;22.58;2.90;;;;;;;25.51;46.52;101484.81;5056041;28;20044;-61
2023/08/22 09:27:24;;;;;;;12.80;2.50;;;;;;;25.93;46.37;101479.31;5056123;28;20056;-62
2023/08/22 09:29:53;;;;;;;11.63;2.50;;;;;;;25.61;44.87;101480.44;5063419;28;20044;-63
2023/08/22 09:32:22;;;;;;;9.90;1.83;;;;;;;25.62;44.76;101487.66;5067025;28;20056;-64
2023/08/22 09:34:56;;;;;;;9.27;1.73;;;;;;;25.78;44.86;101485.31;5051450;28;20037;-63
2023/08/22 09:37:30;;;;;;;9.88;2.10;;;;;;;25.92;44.75;101476.91;5056481;28;20060;-63
2023/08/22 09:39:58;;;;;;;11.52;2.42;;;;;;;26.17;44.04;101486.28;5055049;28;20057;-63
2023/08/22 09:42:29;;;;;;;9.98;2.38;;;;;;;26.05;44.05;101472.50;5056079;28;20060;-65
2023/08/22 09:44:58;;;;;;;9.00;2.88;;;;;;;25.87;44.48;101477.28;5055401;28;20041;-62
2023/08/22 09:47:30;;;;;;;7.82;2.10;;;;;;;26.19;44.66;101479.00;5056348;28;20056;-63
2023/08/22 09:50:05;;;;;;;10.57;2.13;;;;;;;26.31;43.65;101481.44;5055910;28;20045;-62
2023/08/22 09:52:36;;;;;;;11.63;2.45;;;;;;;25.98;43.95;101478.91;5047090;28;20049;-62
2023/08/22 09:55:05;;;;;;;8.65;2.22;;;;;;;26.13;43.50;101479.81;5034435;28;20073;-62
2023/08/22 09:57:33;;;;;;;9.02;2.03;;;;;;;26.40;44.17;101475.38;5055869;28;20061;-62
2023/08/22 10:00:03;;;;;;;5.35;1.77;;;;;;;26.22;42.91;101478.19;5054469;28;20041;-63
2023/08/22 10:02:40;;;;;;;7.25;1.55;;;;;;;26.41;42.66;101479.84;5054443;28;20056;-63
2023/08/22 10:05:09;;;;;;;7.32;1.83;;;;;;;26.43;42.48;101474.59;5038082;28;20056;-64
2023/08/22 10:07:36;;;;;;;8.32;1.98;;;;;;;26.24;42.61;101472.16;5056016;28;20120;-63
2023/08/22 10:10:05;;;;;;;14.18;1.80;;;;;;;26.30;42.09;101474.19;5052707;28;20695;-62
2023/08/22 10:12:33;;;;;;;7.15;1.45;;;;;;;26.51;42.12;101474.19;5055752;28;20571;-61
2023/08/22 10:15:03;;;;;;;9.02;1.55;;;;;;;26.56;42.03;101467.31;5055361;28;20045;-63
2023/08/22 10:17:32;;;;;;;7.55;1.90;;;;;;;26.68;41.83;101472.59;5054601;28;20123;-63
2023/08/22 10:20:04;;;;;;;6.78;1.92;;;;;;;26.97;41.39;101459.25;5055250;28;20048;-62
2023/08/22 10:22:33;;;;;;;7.35;2.10;;;;;;;27.01;41.67;101460.03;5055993;28;20061;-63
2023/08/22 10:25:05;;;;;;;7.57;2.17;;;;;;;26.95;41.19;101465.31;5055243;28;20045;-63
2023/08/22 10:27:35;;;;;;;13.25;2.28;;;;;;;26.58;41.48;101462.91;5049466;28;20056;-63
2023/08/22 10:30:12;;;;;;;7.20;1.75;;;;;;;26.49;41.53;101459.66;5062872;28;20044;-62
2023/08/22 10:32:40;;;;;;;12.25;4.57;;;;;;;26.75;41.33;101458.47;5063094;28;20053;-63
2023/08/22 10:35:12;;;;;;;8.52;2.17;;;;;;;26.52;41.65;101461.66;5054984;28;20056;-62
2023/08/22 10:37:47;;;;;;;3.67;1.60;;;;;;;26.66;41.13;101452.38;5055228;28;20060;-63
2023/08/22 10:40:24;;;;;;;7.32;1.80;;;;;;;27.03;40.76;101449.94;5055110;28;20284;-63
2023/08/22 10:43:05;;;;;;;5.18;1.65;;;;;;;26.99;40.72;101454.00;5048458;28;20509;-61
2023/08/22 10:45:49;;;;;;;8.55;1.70;;;;;;;26.85;40.85;101454.03;5054661;28;20044;-62
2023/08/22 10:48:18;;;;;;;5.03;1.77;;;;;;;27.08;40.48;101454.34;5054893;28;20057;-62
2023/08/22 10:50:49;;;;;;;8.53;2.00;;;;;;;27.07;40.78;101453.56;5055152;28;20503;-63
2023/08/22 10:53:20;;;;;;;9.57;4.50;;;;;;;27.28;40.84;101447.84;5044054;28;20445;-61
2023/08/22 10:55:49;;;;;;;11.60;3.47;;;;;;;27.25;40.62;101450.69;5035020;28;20452;-62
2023/08/22 10:58:36;;;;;;;9.25;2.10;;;;;;;26.87;40.78;101457.25;5035865;28;20129;-63
2023/08/22 11:01:07;;;;;;;9.05;2.00;;;;;;;26.91;40.55;101441.88;5053265;28;20052;-64
2023/08/22 11:03:36;;;;;;;7.38;2.08;;;;;;;26.89;40.65;101449.97;5053466;28;20350;-63
2023/08/22 11:06:17;;;;;;;9.40;2.13;;;;;;;27.06;40.75;101453.97;5054582;28;20045;-61
2023/08/22 11:08:45;;;;;;;7.63;2.30;;;;;;;27.28;39.99;101449.88;5054614;28;20074;-61
2023/08/22 11:11:17;;;;;;;5.93;2.30;;;;;;;27.28;40.24;101453.50;5054006;28;20048;-62
2023/08/22 11:13:45;;;;;;;7.45;2.50;;;;;;;27.24;40.08;101443.41;5054589;28;20510;-64
2023/08/22 11:16:17;;;;;;;8.32;2.03;;;;;;;27.29;39.83;101437.31;5050789;28;20045;-63
2023/08/22 11:18:47;;;;;;;6.30;1.75;;;;;;;27.24;40.00;101444.22;5033642;28;20045;-62
2023/08/22 11:21:15;;;;;;;7.35;1.90;;;;;;;27.15;40.58;101441.00;5043755;28;20049;-63
2023/08/22 11:23:43;;;;;;;8.38;1.70;;;;;;;27.17;40.39;101440.59;5054377;28;20049;-62
2023/08/22 11:26:12;;;;;;;15.98;3.10;;;;;;;27.11;40.40;101442.25;5045234;28;20769;-62
2023/08/22 11:28:40;;;;;;;6.13;2.05;;;;;;;27.21;40.20;101439.38;5054189;28;20068;-62
2023/08/22 11:31:13;;;;;;;11.27;4.57;;;;;;;27.45;39.84;101430.03;5071338;28;20407;-62